Time;durP1;ratioP1;P1;durP2;ratioP2;P2;SDS_P1;SDS_P2;PMS_P1;PMS_P2;Temp;Humidity;BMP_temperature;BMP_pressure;BME280_temperature;BME280_humidity;BME280_pressure;Samples;Min_cycle;Max_cycle;Signal;HPM_P1;HPM_P2
2022/07/03 00:00:35;;;;;;;4.88;2.10;;;18.40;99.90;;;;;;5073818;28;20089;-77
2022/07/03 00:03:00;;;;;;;6.20;1.83;;;18.30;99.90;;;;;;5074298;28;20449;-77
2022/07/03 00:05:26;;;;;;;6.25;2.30;;;18.30;99.90;;;;;;5072618;28;20530;-76
2022/07/03 00:07:52;;;;;;;6.20;2.35;;;18.30;99.90;;;;;;5073075;28;20017;-76
2022/07/03 00:10:18;;;;;;;11.60;2.63;;;18.50;99.90;;;;;;5064295;28;20393;-76
2022/07/03 00:12:43;;;;;;;6.07;2.33;;;18.70;99.90;;;;;;5073818;28;20048;-76
2022/07/03 00:15:09;;;;;;;4.53;2.60;;;18.60;99.90;;;;;;5073701;28;20040;-77
2022/07/03 00:17:35;;;;;;;8.52;2.70;;;18.30;99.90;;;;;;5073600;28;20420;-76
2022/07/03 00:20:01;;;;;;;6.88;2.70;;;18.30;99.90;;;;;;5072805;28;20039;-77
2022/07/03 00:22:32;;;;;;;7.95;2.55;;;18.50;99.90;;;;;;5073842;28;20028;-77
2022/07/03 00:25:03;;;;;;;9.25;2.88;;;18.50;99.90;;;;;;5073846;28;20024;-76
2022/07/03 00:27:33;;;;;;;5.30;2.63;;;18.40;99.90;;;;;;5073518;28;20112;-77
2022/07/03 00:30:00;;;;;;;5.88;2.20;;;18.60;99.90;;;;;;5073359;28;20104;-75
2022/07/03 00:32:27;;;;;;;7.72;2.33;;;18.70;99.90;;;;;;5073524;28;20032;-76
2022/07/03 00:34:55;;;;;;;9.85;2.40;;;18.50;99.90;;;;;;5072194;28;20384;-76
2022/07/03 00:37:22;;;;;;;9.93;2.75;;;18.10;99.90;;;;;;5072379;28;20023;-76
2022/07/03 00:39:48;;;;;;;5.07;2.13;;;18.20;99.90;;;;;;5073114;28;20028;-76
2022/07/03 00:42:15;;;;;;;6.30;2.22;;;18.20;99.90;;;;;;5073342;28;20024;-77
2022/07/03 00:44:52;;;;;;;6.00;2.47;;;18.10;99.90;;;;;;5073524;28;20382;-77
2022/07/03 00:47:23;;;;;;;6.15;2.17;;;18.60;99.90;;;;;;5050944;28;20063;-76
2022/07/03 00:49:51;;;;;;;13.18;2.30;;;18.90;99.90;;;;;;5073204;28;20029;-76
2022/07/03 00:52:20;;;;;;;9.07;2.20;;;18.90;99.90;;;;;;5073065;28;20027;-76
2022/07/03 00:54:53;;;;;;;6.72;2.55;;;18.80;99.90;;;;;;5073183;28;20055;-76
2022/07/03 00:57:20;;;;;;;6.88;2.45;;;18.90;99.90;;;;;;5071976;28;20060;-76
2022/07/03 00:59:46;;;;;;;9.48;2.67;;;18.80;99.90;;;;;;5071857;28;20036;-75
2022/07/03 01:02:37;;;;;;;11.98;2.67;;;18.90;99.90;;;;;;5073026;28;20025;-77
2022/07/03 01:05:12;;;;;;;8.77;2.45;;;18.80;99.90;;;;;;5051496;28;20035;-76
2022/07/03 01:08:06;;;;;;;8.55;2.20;;;18.60;99.90;;;;;;5072997;28;20032;-77
2022/07/03 01:10:35;;;;;;;4.60;2.25;;;18.10;99.90;;;;;;5057698;28;20059;-75
2022/07/03 01:13:09;;;;;;;6.20;2.15;;;18.20;99.90;;;;;;5072415;28;20028;-76
2022/07/03 01:15:35;;;;;;;3.95;2.03;;;17.90;99.90;;;;;;5073045;28;20041;-75
2022/07/03 01:18:35;;;;;;;5.07;2.00;;;17.80;99.90;;;;;;5072175;28;20020;-77
2022/07/03 01:21:13;;;;;;;9.18;2.35;;;17.90;99.90;;;;;;5070371;28;20063;-76
2022/07/03 01:23:51;;;;;;;6.18;2.22;;;18.20;99.90;;;;;;5073015;28;20025;-77
2022/07/03 01:26:18;;;;;;;8.27;2.50;;;18.40;99.90;;;;;;5072894;28;20036;-77
2022/07/03 01:28:45;;;;;;;4.10;2.30;;;18.40;99.90;;;;;;5072553;28;20013;-77
2022/07/03 01:31:20;;;;;;;10.55;2.35;;;18.50;99.90;;;;;;5072682;28;20044;-75
2022/07/03 01:33:49;;;;;;;8.20;2.72;;;18.30;99.90;;;;;;5072551;28;20048;-75
2022/07/03 01:36:17;;;;;;;9.25;2.60;;;18.00;99.90;;;;;;5072981;28;20161;-76
2022/07/03 01:38:45;;;;;;;13.70;2.75;;;18.20;99.90;;;;;;5072773;28;20024;-75
2022/07/03 01:41:12;;;;;;;9.18;2.58;;;17.60;99.90;;;;;;5072794;28;20415;-77
2022/07/03 01:43:48;;;;;;;5.18;2.22;;;17.80;99.90;;;;;;5072420;28;20036;-77
2022/07/03 01:46:18;;;;;;;6.53;2.47;;;17.90;99.90;;;;;;5070917;28;20542;-76
2022/07/03 01:48:45;;;;;;;7.63;2.47;;;18.20;99.90;;;;;;5071670;28;20115;-75
2022/07/03 01:51:15;;;;;;;8.20;2.45;;;17.90;99.90;;;;;;5072750;28;20115;-75
2022/07/03 01:53:47;;;;;;;7.75;2.40;;;18.10;99.90;;;;;;5072688;28;20124;-76
2022/07/03 01:56:13;;;;;;;7.38;2.47;;;17.90;99.90;;;;;;5044890;28;20032;-76
2022/07/03 01:58:39;;;;;;;7.55;2.00;;;17.60;99.90;;;;;;5072468;28;20036;-76
2022/07/03 02:01:17;;;;;;;5.72;2.60;;;17.80;99.90;;;;;;5072578;28;20017;-76
2022/07/03 02:03:51;;;;;;;9.00;2.30;;;17.60;99.90;;;;;;5072526;28;20033;-76
2022/07/03 02:06:25;;;;;;;7.45;2.72;;;17.90;99.90;;;;;;5072510;28;20054;-76
2022/07/03 02:09:04;;;;;;;9.10;2.40;;;17.70;99.90;;;;;;5063262;28;20044;-75
2022/07/03 02:11:37;;;;;;;7.22;2.30;;;17.70;99.90;;;;;;5044671;28;20043;-75
2022/07/03 02:14:23;;;;;;;11.52;2.22;;;17.60;99.90;;;;;;5072415;28;20063;-75
2022/07/03 02:17:07;;;;;;;3.30;1.77;;;17.30;99.90;;;;;;5048478;28;20396;-75
2022/07/03 02:20:02;;;;;;;7.45;2.35;;;17.70;99.90;;;;;;5066166;28;20092;-76
2022/07/03 02:22:32;;;;;;;4.35;1.67;;;17.70;99.90;;;;;;5046762;28;20029;-75
2022/07/03 02:25:06;;;;;;;10.15;2.33;;;17.60;99.90;;;;;;5051874;28;20044;-75
2022/07/03 02:27:55;;;;;;;2.97;1.90;;;17.70;99.90;;;;;;5052151;28;20090;-77
2022/07/03 02:30:27;;;;;;;5.15;1.80;;;17.60;99.90;;;;;;5055918;28;20123;-76
2022/07/03 02:32:54;;;;;;;2.95;1.50;;;17.40;99.90;;;;;;5056168;28;20040;-76
2022/07/03 02:35:28;;;;;;;4.88;1.70;;;17.40;99.90;;;;;;5055624;28;20147;-75
2022/07/03 02:38:15;;;;;;;5.97;1.83;;;17.50;99.90;;;;;;5055990;28;20112;-75
2022/07/03 02:40:56;;;;;;;6.97;1.73;;;17.10;99.90;;;;;;5055672;28;20077;-77
2022/07/03 02:43:31;;;;;;;4.82;1.95;;;17.30;99.90;;;;;;5055403;28;20041;-75
2022/07/03 02:46:48;;;;;;;3.17;1.40;;;17.60;99.90;;;;;;5055848;28;20112;-76
2022/07/03 02:49:39;;;;;;;4.45;1.92;;;17.50;99.90;;;;;;5041952;28;20025;-75
2022/07/03 02:52:34;;;;;;;6.00;2.10;;;17.30;99.90;;;;;;5055472;28;20033;-75
2022/07/03 02:55:26;;;;;;;7.50;1.90;;;17.20;99.90;;;;;;5040013;28;20033;-76
2022/07/03 02:57:57;;;;;;;;;;;17.20;99.90;;;;;;5055911;28;20469;-75
2022/07/03 03:00:24;;;;;;;12.53;2.30;;;17.10;99.90;;;;;;5054143;28;19954;-75
2022/07/03 03:02:50;;;;;;;12.27;2.35;;;17.30;99.90;;;;;;5055457;28;20021;-76
2022/07/03 03:05:21;;;;;;;5.30;2.05;;;17.60;99.90;;;;;;5055405;28;20033;-76
2022/07/03 03:08:21;;;;;;;4.20;2.20;;;17.60;99.90;;;;;;5055038;28;20032;-75
2022/07/03 03:10:50;;;;;;;4.63;1.90;;;17.40;99.90;;;;;;5054907;28;20071;-75
2022/07/03 03:13:19;;;;;;;5.70;2.00;;;17.10;99.90;;;;;;5055303;28;20469;-75
2022/07/03 03:16:06;;;;;;;6.15;2.00;;;16.80;99.90;;;;;;5055066;28;20370;-76
2022/07/03 03:18:37;;;;;;;3.05;1.73;;;17.20;99.90;;;;;;5055066;28;20033;-76
2022/07/03 03:21:06;;;;;;;5.82;2.47;;;17.10;99.90;;;;;;5054767;28;20031;-77
2022/07/03 03:23:44;;;;;;;8.35;1.98;;;17.10;99.90;;;;;;5054970;28;20389;-75
2022/07/03 03:26:12;;;;;;;10.05;2.45;;;17.00;99.90;;;;;;5054642;28;20029;-75
2022/07/03 03:28:40;;;;;;;8.10;2.22;;;17.00;99.90;;;;;;5054719;28;20029;-74
2022/07/03 03:31:08;;;;;;;5.65;2.30;;;16.90;99.90;;;;;;5054625;28;20028;-76
2022/07/03 03:33:42;;;;;;;10.02;2.78;;;16.70;99.90;;;;;;5054443;28;20454;-74
2022/07/03 03:36:10;;;;;;;4.30;2.00;;;16.60;99.90;;;;;;5054300;28;20087;-76
2022/07/03 03:38:37;;;;;;;4.88;1.83;;;16.30;99.90;;;;;;5053928;28;20044;-76
2022/07/03 03:41:03;;;;;;;7.10;2.15;;;16.20;99.90;;;;;;5053177;28;20021;-76
2022/07/03 03:43:30;;;;;;;2.65;1.67;;;16.40;99.90;;;;;;5054256;28;20417;-74
2022/07/03 03:45:56;;;;;;;3.72;1.77;;;16.40;99.90;;;;;;5054330;28;20504;-76
2022/07/03 03:48:22;;;;;;;2.72;1.80;;;16.30;99.90;;;;;;5054166;28;20029;-76
2022/07/03 03:50:49;;;;;;;12.80;3.38;;;16.50;99.90;;;;;;5054379;28;20547;-76
2022/07/03 03:53:17;;;;;;;8.02;2.92;;;16.50;99.90;;;;;;5054301;28;20083;-75
2022/07/03 03:56:02;;;;;;;5.28;2.35;;;16.90;99.90;;;;;;5054430;28;20048;-75
2022/07/03 03:58:34;;;;;;;5.88;2.60;;;16.90;99.90;;;;;;5054206;28;20033;-75
2022/07/03 04:01:03;;;;;;;5.90;2.50;;;16.90;99.90;;;;;;5054119;28;20433;-75
2022/07/03 04:03:29;;;;;;;6.22;2.78;;;17.00;99.90;;;;;;5054257;28;20039;-75
2022/07/03 04:05:55;;;;;;;7.05;3.10;;;16.90;99.90;;;;;;5054229;28;20021;-74
2022/07/03 04:08:22;;;;;;;6.10;3.22;;;16.70;99.90;;;;;;5053902;28;20370;-76
2022/07/03 04:10:49;;;;;;;4.00;2.78;;;16.90;99.90;;;;;;5053823;28;20454;-75
2022/07/03 04:13:15;;;;;;;9.23;3.20;;;16.80;99.90;;;;;;5054304;28;20021;-74
2022/07/03 04:15:42;;;;;;;8.23;2.83;;;16.60;99.90;;;;;;5053809;28;20040;-75
2022/07/03 04:18:08;;;;;;;6.45;3.15;;;16.50;99.90;;;;;;5054096;28;20049;-75
2022/07/03 04:20:35;;;;;;;7.35;2.88;;;16.50;99.90;;;;;;5053379;28;20066;-75
2022/07/03 04:23:01;;;;;;;7.60;2.97;;;16.80;99.90;;;;;;5053975;28;20017;-76
2022/07/03 04:25:26;;;;;;;7.60;3.10;;;16.60;99.90;;;;;;5053799;28;20520;-76
2022/07/03 04:27:52;;;;;;;6.57;2.88;;;16.70;99.90;;;;;;5052310;28;20386;-74
2022/07/03 04:30:18;;;;;;;6.35;3.35;;;16.60;99.90;;;;;;5053851;28;20109;-75
2022/07/03 04:32:44;;;;;;;5.40;2.70;;;16.60;99.90;;;;;;5052306;28;20088;-76
2022/07/03 04:35:11;;;;;;;7.50;3.65;;;16.50;99.90;;;;;;5053372;28;20033;-76
2022/07/03 04:37:37;;;;;;;8.57;3.30;;;16.90;99.90;;;;;;5053793;28;20373;-75
2022/07/03 04:40:04;;;;;;;6.45;3.28;;;17.20;99.90;;;;;;5053488;28;20478;-74
2022/07/03 04:42:30;;;;;;;5.22;3.33;;;17.00;99.90;;;;;;5053559;28;20031;-74
2022/07/03 04:44:55;;;;;;;6.50;3.70;;;17.30;99.90;;;;;;5053494;28;20017;-75
2022/07/03 04:47:21;;;;;;;11.77;5.13;;;17.40;99.90;;;;;;5053347;28;20552;-75
2022/07/03 04:49:47;;;;;;;6.15;4.22;;;17.10;99.90;;;;;;5053024;28;20119;-73
2022/07/03 04:52:13;;;;;;;9.82;4.63;;;17.00;99.90;;;;;;5052141;28;20025;-74
2022/07/03 04:54:38;;;;;;;6.72;3.80;;;17.10;99.90;;;;;;5053498;28;20116;-76
2022/07/03 04:57:05;;;;;;;7.07;3.88;;;16.50;99.90;;;;;;5053073;28;20032;-76
2022/07/03 04:59:31;;;;;;;8.25;4.72;;;16.20;99.90;;;;;;5053239;28;20021;-74
2022/07/03 05:01:57;;;;;;;7.07;4.53;;;16.40;99.90;;;;;;5052968;28;20029;-75
2022/07/03 05:04:22;;;;;;;7.85;4.70;;;16.70;99.90;;;;;;5051845;28;20021;-75
2022/07/03 05:06:48;;;;;;;12.40;5.43;;;16.70;99.90;;;;;;5053113;28;20055;-74
2022/07/03 05:09:15;;;;;;;9.82;6.38;;;16.90;99.90;;;;;;5052939;28;20381;-75
2022/07/03 05:11:41;;;;;;;13.65;7.03;;;16.90;99.90;;;;;;5053162;28;20033;-76
2022/07/03 05:14:07;;;;;;;14.85;8.80;;;16.60;99.90;;;;;;5052836;28;20037;-76
2022/07/03 05:16:33;;;;;;;13.95;7.80;;;16.60;99.90;;;;;;5052996;28;20037;-76
2022/07/03 05:18:59;;;;;;;15.27;8.23;;;16.60;99.90;;;;;;5052498;28;20452;-74
2022/07/03 05:21:25;;;;;;;17.65;8.93;;;16.70;99.90;;;;;;5051890;28;20033;-76
2022/07/03 05:23:51;;;;;;;14.95;8.73;;;16.80;99.90;;;;;;5052849;28;20032;-76
2022/07/03 05:26:18;;;;;;;18.50;10.25;;;16.40;99.90;;;;;;5052877;28;20029;-75
2022/07/03 05:28:44;;;;;;;15.98;10.13;;;16.60;99.90;;;;;;5052751;28;20017;-74
2022/07/03 05:31:10;;;;;;;18.33;10.48;;;16.80;99.90;;;;;;5051382;28;20095;-74
2022/07/03 05:33:36;;;;;;;15.60;10.50;;;17.00;99.90;;;;;;5052559;28;20397;-75
2022/07/03 05:36:02;;;;;;;23.35;12.00;;;16.80;99.90;;;;;;5052787;28;20043;-76
2022/07/03 05:41:12;;;;;;;15.00;9.55;;;16.60;99.90;;;;;;5052529;28;20485;-76
2022/07/03 05:43:38;;;;;;;22.10;10.10;;;16.60;99.90;;;;;;5052446;28;20039;-75
2022/07/03 05:46:04;;;;;;;13.93;9.43;;;17.00;99.90;;;;;;5052546;28;20025;-75
2022/07/03 05:48:30;;;;;;;18.05;11.25;;;17.10;99.90;;;;;;5052095;28;20543;-76
2022/07/03 05:50:56;;;;;;;16.85;9.98;;;17.00;99.90;;;;;;5052505;28;20035;-74
2022/07/03 05:53:22;;;;;;;14.20;10.48;;;16.90;99.90;;;;;;5052524;28;20043;-75
2022/07/03 05:55:48;;;;;;;15.43;9.75;;;17.10;99.90;;;;;;5052858;28;20029;-75
2022/07/03 05:58:14;;;;;;;22.00;10.77;;;17.20;99.90;;;;;;5052302;28;20576;-75
2022/07/03 06:00:41;;;;;;;22.77;10.77;;;17.20;99.90;;;;;;5052341;28;20100;-76
2022/07/03 06:03:07;;;;;;;18.05;10.80;;;17.20;99.90;;;;;;5052832;28;20100;-76
2022/07/03 06:05:33;;;;;;;29.90;13.63;;;17.00;99.90;;;;;;5056047;28;20079;-74
2022/07/03 06:08:00;;;;;;;19.95;12.30;;;17.40;99.90;;;;;;5056204;28;20112;-74
2022/07/03 06:10:27;;;;;;;24.73;13.80;;;17.30;99.90;;;;;;5056066;28;20391;-76
2022/07/03 06:12:53;;;;;;;21.58;12.75;;;17.50;99.90;;;;;;5056226;28;20473;-76
2022/07/03 06:15:19;;;;;;;21.13;12.57;;;17.70;99.90;;;;;;5056283;28;20040;-75
2022/07/03 06:17:45;;;;;;;19.00;12.05;;;17.70;99.90;;;;;;5055820;28;20514;-76
2022/07/03 06:20:11;;;;;;;18.70;11.48;;;17.70;99.90;;;;;;5056020;28;20467;-75
2022/07/03 06:22:38;;;;;;;21.27;11.55;;;17.90;99.90;;;;;;5054859;28;20025;-74
2022/07/03 06:25:04;;;;;;;17.63;10.30;;;17.90;99.90;;;;;;5056032;28;20046;-76
2022/07/03 06:27:30;;;;;;;15.85;9.93;;;17.80;99.90;;;;;;5055874;28;20355;-76
2022/07/03 06:29:56;;;;;;;21.42;11.98;;;18.00;99.90;;;;;;5055837;28;20142;-75
2022/07/03 06:32:21;;;;;;;16.45;10.52;;;17.60;99.90;;;;;;5054162;28;20493;-74
2022/07/03 06:34:48;;;;;;;16.50;10.50;;;17.60;99.90;;;;;;5055701;28;20033;-75
2022/07/03 06:37:14;;;;;;;13.38;9.98;;;17.60;99.90;;;;;;5055919;28;20493;-76
2022/07/03 06:39:40;;;;;;;17.40;9.70;;;17.70;99.90;;;;;;5055653;28;20024;-75
2022/07/03 06:42:06;;;;;;;16.08;9.57;;;17.80;99.90;;;;;;5055864;28;20029;-75
2022/07/03 06:44:32;;;;;;;18.02;10.05;;;17.80;99.90;;;;;;5055908;28;20051;-75
2022/07/03 06:46:58;;;;;;;13.85;8.52;;;17.70;99.90;;;;;;5055106;28;20036;-74
2022/07/03 06:49:24;;;;;;;15.88;7.97;;;17.60;99.90;;;;;;5055384;28;20024;-76
2022/07/03 06:51:50;;;;;;;12.70;7.88;;;18.00;99.90;;;;;;5055954;28;20415;-75
2022/07/03 06:54:16;;;;;;;11.73;6.63;;;17.60;99.90;;;;;;5054461;28;20017;-75
2022/07/03 06:56:42;;;;;;;14.85;7.57;;;17.80;99.90;;;;;;5055321;28;20456;-75
2022/07/03 06:59:08;;;;;;;13.20;7.22;;;18.10;99.90;;;;;;5053937;28;20032;-75
2022/07/03 07:01:34;;;;;;;16.30;7.03;;;18.40;99.90;;;;;;5055168;28;20064;-75
2022/07/03 07:04:01;;;;;;;10.70;6.75;;;18.40;99.90;;;;;;5055236;28;20021;-74
2022/07/03 07:06:27;;;;;;;11.75;6.63;;;18.60;99.90;;;;;;5055302;28;20104;-74
2022/07/03 07:08:53;;;;;;;10.15;6.45;;;18.00;99.90;;;;;;5055009;28;20055;-74
2022/07/03 07:11:19;;;;;;;14.57;7.70;;;18.30;99.90;;;;;;5055119;28;20033;-75
2022/07/03 07:13:45;;;;;;;11.98;6.32;;;18.40;99.90;;;;;;5055145;28;20054;-76
2022/07/03 07:16:11;;;;;;;12.27;5.85;;;18.60;99.90;;;;;;5053633;28;20064;-74
2022/07/03 07:18:36;;;;;;;12.52;5.95;;;18.80;99.90;;;;;;5055025;28;20027;-76
2022/07/03 07:21:02;;;;;;;14.30;5.38;;;18.60;99.90;;;;;;5053694;28;20053;-74
2022/07/03 07:23:28;;;;;;;13.20;6.00;;;18.90;99.90;;;;;;5055285;28;20096;-75
2022/07/03 07:25:54;;;;;;;11.15;6.15;;;18.60;99.90;;;;;;5054827;28;20082;-74
2022/07/03 07:28:19;;;;;;;10.60;6.60;;;18.90;99.90;;;;;;5054823;28;20028;-74
2022/07/03 07:30:45;;;;;;;9.23;6.13;;;18.80;99.90;;;;;;5054437;28;20037;-73
2022/07/03 07:33:11;;;;;;;18.83;6.43;;;18.80;99.90;;;;;;5054954;28;20032;-73
2022/07/03 07:35:37;;;;;;;14.35;6.20;;;19.00;99.90;;;;;;5054773;28;20390;-74
2022/07/03 07:38:03;;;;;;;14.13;6.95;;;18.80;99.90;;;;;;5054739;28;20505;-74
2022/07/03 07:40:28;;;;;;;9.90;6.53;;;18.80;99.90;;;;;;5054754;28;20063;-76
2022/07/03 07:42:54;;;;;;;13.25;6.30;;;18.90;99.90;;;;;;5054582;28;20032;-74
2022/07/03 07:45:20;;;;;;;13.10;5.78;;;19.00;99.90;;;;;;5054101;28;20417;-73
2022/07/03 07:47:46;;;;;;;18.73;5.45;;;18.80;99.90;;;;;;5054415;28;20033;-74
2022/07/03 07:50:12;;;;;;;14.20;5.57;;;18.90;99.90;;;;;;5054364;28;20054;-75
2022/07/03 07:52:37;;;;;;;13.77;5.53;;;19.10;99.90;;;;;;5054517;28;20025;-75
2022/07/03 07:55:05;;;;;;;9.50;4.50;;;19.70;99.90;;;;;;5053926;28;20458;-72
2022/07/03 07:57:38;;;;;;;9.32;4.47;;;19.70;99.90;;;;;;5054392;28;20036;-74
2022/07/03 08:00:12;;;;;;;12.18;4.50;;;19.30;99.90;;;;;;5053824;28;20056;-76
2022/07/03 08:05:37;;;;;;;6.40;3.83;;;19.30;99.90;;;;;;5053821;28;20040;-74
2022/07/03 08:08:08;;;;;;;4.40;3.40;;;19.40;99.90;;;;;;5054033;28;20024;-76
2022/07/03 08:10:36;;;;;;;7.35;3.70;;;19.80;99.90;;;;;;5053891;28;20449;-75
2022/07/03 08:13:02;;;;;;;6.78;2.95;;;19.90;99.90;;;;;;5054057;28;20021;-75
2022/07/03 08:15:28;;;;;;;5.18;2.75;;;20.20;99.90;;;;;;5052559;28;20037;-75
2022/07/03 08:17:54;;;;;;;9.25;3.00;;;20.20;99.90;;;;;;5070779;22;20048;-64
2022/07/03 08:20:20;;;;;;;9.30;3.88;;;20.50;99.90;;;;;;5066869;28;20139;-62
2022/07/03 08:22:45;;;;;;;6.53;3.17;;;20.40;99.90;;;;;;5073954;28;20516;-62
2022/07/03 08:25:11;;;;;;;16.45;4.50;;;19.70;99.90;;;;;;5073975;28;20077;-64
2022/07/03 08:27:37;;;;;;;10.98;4.32;;;19.80;99.90;;;;;;5073467;28;20027;-62
2022/07/03 08:30:04;;;;;;;3.67;1.80;;;19.80;99.90;;;;;;5073473;28;20086;-64
2022/07/03 08:32:30;;;;;;;8.98;2.95;;;19.70;99.90;;;;;;5073912;28;20043;-66
2022/07/03 08:34:55;;;;;;;9.15;3.70;;;19.70;99.90;;;;;;5073664;28;20096;-61
2022/07/03 08:37:21;;;;;;;6.53;2.60;;;20.30;99.90;;;;;;5073487;28;20481;-61
2022/07/03 08:39:47;;;;;;;7.72;2.65;;;20.10;99.90;;;;;;5072330;28;20017;-66
2022/07/03 08:42:13;;;;;;;5.65;2.40;;;20.50;99.90;;;;;;5073274;28;20047;-61
2022/07/03 08:44:40;;;;;;;7.93;3.17;;;20.40;99.90;;;;;;5073612;28;20115;-61
2022/07/03 08:47:10;;;;;;;6.72;2.83;;;20.80;99.90;;;;;;5069359;28;20030;-62
2022/07/03 08:49:37;;;;;;;5.97;2.97;;;20.60;99.90;;;;;;5073695;28;20081;-63
2022/07/03 08:52:03;;;;;;;5.38;3.50;;;20.20;99.90;;;;;;5073227;28;20111;-64
2022/07/03 08:54:31;;;;;;;7.68;3.17;;;20.10;99.90;;;;;;5073559;28;20025;-66
2022/07/03 08:56:57;;;;;;;8.60;3.38;;;20.30;99.90;;;;;;5071566;28;20465;-64
2022/07/03 08:59:25;;;;;;;4.15;2.53;;;20.50;99.90;;;;;;5073426;28;20498;-66
2022/07/03 09:01:52;;;;;;;3.10;2.50;;;20.50;99.90;;;;;;5073167;28;20029;-65
2022/07/03 09:04:18;;;;;;;3.70;2.20;;;20.80;99.90;;;;;;5073021;28;20488;-61
2022/07/03 09:06:43;;;;;;;4.93;2.13;;;21.20;99.90;;;;;;5073049;28;20036;-64
2022/07/03 09:09:10;;;;;;;5.97;1.73;;;20.60;99.90;;;;;;5066212;28;20449;-65
2022/07/03 09:11:39;;;;;;;4.55;2.15;;;20.80;99.90;;;;;;5072593;28;20115;-61
2022/07/03 09:14:06;;;;;;;4.65;2.42;;;20.70;99.90;;;;;;5072897;28;20028;-61
2022/07/03 09:16:35;;;;;;;5.15;2.40;;;20.60;99.90;;;;;;5073034;28;20024;-61
2022/07/03 09:19:03;;;;;;;6.63;2.20;;;21.00;99.90;;;;;;5072597;28;20032;-64
2022/07/03 09:21:36;;;;;;;5.43;2.30;;;21.20;99.90;;;;;;5072894;28;20025;-63
2022/07/03 09:24:06;;;;;;;6.57;2.30;;;21.00;99.90;;;;;;5072950;28;20381;-63
2022/07/03 09:26:32;;;;;;;4.72;2.05;;;21.40;99.90;;;;;;5072623;28;20461;-64
2022/07/03 09:28:58;;;;;;;3.20;2.15;;;22.10;99.90;;;;;;5054932;28;20013;-63
2022/07/03 09:31:29;;;;;;;6.57;2.80;;;21.10;99.90;;;;;;5072562;28;20051;-61
2022/07/03 09:34:01;;;;;;;5.67;2.47;;;21.00;99.90;;;;;;5072732;28;20016;-64
2022/07/03 09:36:42;;;;;;;3.55;2.13;;;20.60;99.90;;;;;;5071452;28;20037;-66
2022/07/03 09:39:30;;;;;;;;;;;21.20;99.90;;;;;;5078288;28;20077;-65
2022/07/03 09:41:55;;;;;;;6.53;2.47;;;21.80;99.90;;;;;;5078103;28;19908;-66
2022/07/03 09:44:36;;;;;;;6.40;2.53;;;22.20;99.90;;;;;;5079652;28;20067;-65
2022/07/03 09:47:15;;;;;;;5.53;2.10;;;21.90;99.90;;;;;;5075589;28;20033;-64
2022/07/03 09:49:45;;;;;;;4.57;1.80;;;21.20;99.90;;;;;;5079101;28;20482;-64
2022/07/03 09:52:41;;;;;;;4.65;2.00;;;20.90;99.90;;;;;;5079107;28;20033;-63
2022/07/03 09:55:09;;;;;;;4.45;1.20;;;20.90;99.90;;;;;;5070333;28;20036;-64
2022/07/03 09:57:37;;;;;;;4.03;1.30;;;20.60;99.90;;;;;;5079157;28;20037;-64
2022/07/03 10:00:12;;;;;;;6.20;1.38;;;20.70;99.90;;;;;;5079255;28;20043;-64
2022/07/03 10:03:04;;;;;;;4.53;1.45;;;20.90;99.90;;;;;;5079136;28;20535;-64
2022/07/03 10:05:30;;;;;;;8.77;1.50;;;20.90;99.90;;;;;;5079181;28;20020;-66
2022/07/03 10:08:07;;;;;;;7.82;1.40;;;20.60;99.90;;;;;;5077792;28;20548;-64
2022/07/03 10:10:35;;;;;;;4.47;0.90;;;20.80;99.90;;;;;;5074886;28;20504;-63
2022/07/03 10:13:03;;;;;;;5.30;1.90;;;21.40;99.90;;;;;;5079191;28;20100;-66
2022/07/03 10:15:30;;;;;;;2.50;0.95;;;21.50;99.90;;;;;;5079064;28;20024;-63
2022/07/03 10:17:57;;;;;;;3.92;1.27;;;21.60;99.90;;;;;;5078890;28;20059;-65
2022/07/03 10:20:25;;;;;;;4.00;1.10;;;22.00;99.90;;;;;;5077818;28;20085;-65
2022/07/03 10:22:51;;;;;;;5.28;1.13;;;22.50;99.90;;;;;;5078953;28;20016;-64
2022/07/03 10:25:18;;;;;;;3.05;1.40;;;22.60;99.10;;;;;;5078686;28;20028;-66
2022/07/03 10:27:45;;;;;;;2.17;0.85;;;22.10;99.50;;;;;;5078799;28;20096;-65
2022/07/03 10:30:14;;;;;;;2.95;0.95;;;21.70;99.40;;;;;;5078990;28;20040;-65
2022/07/03 10:32:40;;;;;;;2.58;0.90;;;21.70;99.90;;;;;;5079068;28;20082;-64
2022/07/03 10:35:07;;;;;;;2.08;0.85;;;21.80;99.60;;;;;;5078760;28;20024;-63
2022/07/03 10:37:43;;;;;;;3.80;0.98;;;22.20;99.70;;;;;;5078549;28;20024;-66
2022/07/03 10:46:10;;;;;;;2.25;0.70;;;22.10;99.90;;;;;;5078765;28;20020;-67
2022/07/03 10:48:55;;;;;;;5.18;1.10;;;22.20;99.60;;;;;;5073996;28;20075;-63
2022/07/03 10:51:21;;;;;;;4.90;1.00;;;22.20;99.60;;;;;;5075669;28;20477;-64
2022/07/03 10:53:48;;;;;;;1.95;0.75;;;21.80;99.00;;;;;;5074970;28;20035;-64
2022/07/03 10:56:17;;;;;;;2.65;1.00;;;22.20;99.20;;;;;;5074989;28;20112;-66
2022/07/03 10:58:56;;;;;;;3.17;1.20;;;22.00;98.60;;;;;;5075387;28;20028;-65
2022/07/03 11:01:33;;;;;;;3.90;0.85;;;22.10;98.80;;;;;;5075336;28;20024;-64
2022/07/03 11:04:00;;;;;;;5.53;1.20;;;21.90;99.30;;;;;;5074390;28;20028;-64
2022/07/03 11:06:44;;;;;;;4.30;0.90;;;22.50;99.10;;;;;;5075520;28;20074;-64
2022/07/03 11:09:12;;;;;;;5.40;1.25;;;22.70;97.90;;;;;;5068317;28;20025;-63
2022/07/03 11:12:00;;;;;;;4.55;1.50;;;22.80;98.50;;;;;;5075182;28;20511;-66
2022/07/03 11:14:28;;;;;;;4.20;1.00;;;23.20;98.80;;;;;;5075125;28;20369;-64
2022/07/03 11:17:21;;;;;;;2.25;0.88;;;22.50;97.80;;;;;;5075197;28;20469;-63
2022/07/03 11:22:49;;;;;;;8.45;1.20;;;23.00;96.80;;;;;;5074805;28;20150;-66
2022/07/03 11:25:17;;;;;;;3.72;1.50;;;23.20;96.60;;;;;;5074851;28;20119;-65
2022/07/03 11:27:43;;;;;;;2.88;1.20;;;23.20;96.00;;;;;;5074928;28;20105;-64
2022/07/03 11:30:12;;;;;;;5.65;1.13;;;23.50;95.90;;;;;;5074526;28;20496;-66
2022/07/03 11:32:52;;;;;;;4.93;0.85;;;24.00;95.00;;;;;;5074850;28;20103;-66
2022/07/03 11:35:54;;;;;;;3.75;1.50;;;23.60;94.80;;;;;;5074935;28;20487;-66
2022/07/03 11:38:26;;;;;;;1.98;1.00;;;23.10;98.20;;;;;;5074571;28;20024;-64
2022/07/03 11:40:53;;;;;;;4.40;1.50;;;22.90;98.10;;;;;;5074613;28;20033;-67
2022/07/03 11:43:19;;;;;;;7.20;1.83;;;22.50;98.90;;;;;;5074495;28;20063;-65
2022/07/03 11:45:47;;;;;;;7.32;1.50;;;22.30;99.90;;;;;;5074714;28;20032;-66
2022/07/03 11:48:18;;;;;;;5.65;1.33;;;22.50;99.50;;;;;;5070500;28;20123;-64
2022/07/03 11:50:47;;;;;;;2.88;1.30;;;23.00;99.90;;;;;;5074223;28;20033;-64
2022/07/03 11:53:24;;;;;;;3.05;1.17;;;22.90;98.10;;;;;;5074576;28;20101;-66
2022/07/03 11:56:01;;;;;;;3.13;1.40;;;22.60;99.50;;;;;;5074478;28;20024;-65
2022/07/03 11:58:40;;;;;;;4.50;1.50;;;22.30;98.90;;;;;;5074139;28;20036;-66
2022/07/03 12:01:07;;;;;;;4.45;1.52;;;22.50;98.70;;;;;;5073910;28;20033;-66
2022/07/03 12:03:33;;;;;;;9.38;1.65;;;22.40;98.70;;;;;;5073981;28;20029;-65
2022/07/03 12:05:59;;;;;;;4.22;1.30;;;22.30;98.20;;;;;;5074102;28;20035;-65
2022/07/03 12:08:30;;;;;;;8.07;1.38;;;22.20;97.00;;;;;;5068745;28;20032;-63
2022/07/03 12:11:09;;;;;;;4.50;1.70;;;22.00;99.20;;;;;;5073491;28;20058;-64
2022/07/03 12:13:35;;;;;;;3.33;1.40;;;22.40;99.00;;;;;;5074291;28;20033;-67
2022/07/03 12:16:06;;;;;;;6.75;1.85;;;22.20;99.10;;;;;;5073859;28;20016;-65
2022/07/03 12:18:48;;;;;;;2.85;1.35;;;22.30;99.90;;;;;;5073874;28;20029;-64
2022/07/03 12:21:16;;;;;;;9.15;1.40;;;22.80;99.70;;;;;;5073424;28;20393;-64
2022/07/03 12:23:47;;;;;;;4.13;1.20;;;23.50;97.80;;;;;;5074213;28;20461;-64
2022/07/03 12:26:25;;;;;;;2.38;0.95;;;23.40;97.60;;;;;;5073588;28;20492;-65
2022/07/03 12:28:51;;;;;;;3.63;1.13;;;24.20;96.60;;;;;;5073702;28;20487;-63
2022/07/03 12:31:17;;;;;;;3.80;1.13;;;23.60;95.60;;;;;;5073361;28;20044;-64
2022/07/03 12:33:43;;;;;;;2.28;1.33;;;23.10;95.70;;;;;;5073592;28;20019;-65
2022/07/03 12:36:09;;;;;;;2.35;1.13;;;22.20;97.20;;;;;;5073888;28;20029;-65
2022/07/03 12:38:40;;;;;;;3.35;1.20;;;22.40;97.50;;;;;;5073552;28;20023;-64
2022/07/03 12:41:07;;;;;;;2.72;1.10;;;22.80;96.60;;;;;;5073443;28;20082;-65
2022/07/03 12:43:41;;;;;;;5.88;1.20;;;22.80;96.70;;;;;;5073489;28;20066;-64
2022/07/03 12:46:19;;;;;;;3.78;1.23;;;23.40;96.40;;;;;;5072862;28;20488;-64
2022/07/03 12:48:49;;;;;;;4.45;1.45;;;23.00;96.40;;;;;;5071949;28;20103;-64
2022/07/03 12:51:16;;;;;;;3.55;0.90;;;23.40;96.20;;;;;;5073034;28;20094;-66
2022/07/03 12:53:42;;;;;;;5.18;1.00;;;23.10;98.60;;;;;;5073449;28;20052;-66
2022/07/03 12:56:11;;;;;;;3.88;0.70;;;22.80;99.90;;;;;;5073685;28;20150;-64
2022/07/03 13:01:29;;;;;;;3.10;0.68;;;22.90;99.90;;;;;;5073226;28;20063;-65
2022/07/03 13:03:55;;;;;;;5.70;1.38;;;23.40;98.60;;;;;;5072652;28;20055;-65
2022/07/03 13:06:23;;;;;;;5.07;1.00;;;23.10;99.40;;;;;;5073321;28;20055;-64
2022/07/03 13:08:53;;;;;;;5.03;1.02;;;23.00;98.90;;;;;;5066189;28;20528;-65
2022/07/03 13:11:48;;;;;;;4.28;0.90;;;23.60;98.20;;;;;;5072979;28;20477;-66
2022/07/03 13:14:17;;;;;;;2.30;0.80;;;23.00;99.00;;;;;;5063044;28;20028;-64